Molina, Colorado
Current Conditions -  °F | °C
As of 11:53 AM on Tuesday 21 Oct 2014 (Local Time) from KGJT Reporting Station
Broken Clouds Broken Clouds  
Wind Chill: 65°   Ceiling: 12000
Heat Index: 65°   Visibility: 10mi
Dew Point: 43°   Wind: 9mph
Humidity: 45%   Direction: 130°SE
Pressure: 30.03"   Gusts: NA
Location:  39.19°N, 108.06°W
Report Text: KGJT 211753Z 13008KT 10SM SCT070 BKN120 18/06 A3003 RMK AO2 SLP121 T01830061 10183 20128 58008
Loading
Personal Weather Stations






























Interactive Weather Map
Tropical Storm Tracking
New forecast layout! Learn more

10-Day Weather Forecast

Advertisements
Track Severe Weather on mobile